createdAt,value
2019-02-26T08:04:28.839Z,51.40
2019-02-26T08:06:59.100Z,52.87
2019-02-26T08:09:26.590Z,57.20
2019-02-26T08:11:54.582Z,53.70
2019-02-26T08:14:23.310Z,58.60
2019-02-26T08:16:55.665Z,53.83
2019-02-26T08:19:22.054Z,53.17
2019-02-26T08:21:50.821Z,55.80
2019-02-26T08:24:24.318Z,56.57
2019-02-26T08:26:49.822Z,52.83
2019-02-26T08:29:17.980Z,55.07
2019-02-26T08:31:47.467Z,55.47
2019-02-26T08:34:15.858Z,56.03
2019-02-26T08:36:46.194Z,54.50
2019-02-26T08:39:15.695Z,58.10
2019-02-26T08:42:00.376Z,57.20
2019-02-26T08:44:28.404Z,57.20
2019-02-26T08:46:56.437Z,57.77
2019-02-26T08:49:24.493Z,56.43
2019-02-26T08:51:52.596Z,58.43
2019-02-26T08:54:23.600Z,57.77
2019-02-26T08:56:50.398Z,55.63
2019-02-26T08:59:20.101Z,56.57
2019-02-26T09:01:48.115Z,55.87
2019-02-26T09:04:17.490Z,51.23
2019-02-26T09:06:45.932Z,55.87
2019-02-26T09:09:13.946Z,57.10
2019-02-26T09:11:50.148Z,51.63
2019-02-26T09:14:14.149Z,53.40
2019-02-26T09:16:43.283Z,52.20
2019-02-26T09:19:11.347Z,51.50
2019-02-26T09:21:42.029Z,54.07
2019-02-26T09:24:09.111Z,52.07
2019-02-26T09:26:37.199Z,50.93
2019-02-26T09:29:05.256Z,51.40
2019-02-26T09:31:33.310Z,54.73
2019-02-26T09:34:01.339Z,55.90
2019-02-26T09:36:29.563Z,51.97
2019-02-26T09:39:34.604Z,53.30
2019-02-26T09:42:04.215Z,49.57
2019-02-26T09:44:33.993Z,50.17
2019-02-26T09:47:04.892Z,49.57
2019-02-26T09:49:33.759Z,50.93
2019-02-26T09:52:03.948Z,51.13
2019-02-26T09:55:05.940Z,47.87
2019-02-26T09:57:34.061Z,47.47
2019-02-26T10:00:03.314Z,52.10
2019-02-26T10:02:32.378Z,48.37
2019-02-26T10:05:00.395Z,55.67
2019-02-26T10:07:29.017Z,50.87
2019-02-26T10:10:00.174Z,54.07
2019-02-26T10:12:29.734Z,49.97
2019-02-26T10:14:59.658Z,46.37
2019-02-26T10:17:27.455Z,50.20
2019-02-26T10:19:56.957Z,51.57
2019-02-26T10:22:26.134Z,50.57
2019-02-26T10:24:54.957Z,49.77
2019-02-26T10:27:23.035Z,50.83
2019-02-26T10:29:51.099Z,48.37
2019-02-26T10:32:19.147Z,50.47
2019-02-26T10:34:47.263Z,50.63
2019-02-26T10:37:15.317Z,49.43
2019-02-26T10:39:44.476Z,51.03
2019-02-26T10:42:13.103Z,50.87
2019-02-26T10:44:42.681Z,49.70
2019-02-26T10:47:10.809Z,52.77
2019-02-26T10:49:38.947Z,50.53
2019-02-26T10:52:07.017Z,53.40
2019-02-26T10:54:40.093Z,50.90
2019-02-26T10:57:07.477Z,52.10
2019-02-26T11:00:11.245Z,51.60
2019-02-26T11:02:40.837Z,48.70
2019-02-26T11:05:11.150Z,55.60
2019-02-26T11:07:40.090Z,50.20
2019-02-26T11:10:08.242Z,48.63
2019-02-26T11:12:36.246Z,49.97
2019-02-26T11:15:06.727Z,51.00
2019-02-26T11:17:34.377Z,54.73
2019-02-26T11:20:04.646Z,54.57
2019-02-26T11:22:32.148Z,55.43
2019-02-26T11:25:01.077Z,57.07
2019-02-26T11:27:29.531Z,50.77
2019-02-26T11:29:59.473Z,52.77
2019-02-26T11:32:29.999Z,50.00
2019-02-26T11:34:57.666Z,48.70
2019-02-26T11:37:27.638Z,48.33
2019-02-26T11:39:57.721Z,40.57
2019-02-26T11:42:28.665Z,40.43
2019-02-26T11:44:56.322Z,41.10
2019-02-26T11:47:24.546Z,37.77
2019-02-26T11:49:52.624Z,35.87
2019-02-26T11:52:20.767Z,36.03
2019-02-26T11:54:48.951Z,39.50
2019-02-26T11:57:17.780Z,39.27
2019-02-26T11:59:45.999Z,34.47
2019-02-26T12:02:14.068Z,35.27
2019-02-26T12:04:42.173Z,36.67
2019-02-26T12:07:10.222Z,33.87
2019-02-26T12:09:40.831Z,37.40
2019-02-26T12:12:09.270Z,34.37
2019-02-26T12:14:40.212Z,34.47
2019-02-26T12:17:07.652Z,33.63
2019-02-26T12:19:37.180Z,34.20
2019-02-26T12:22:06.032Z,32.90
2019-02-26T12:24:36.171Z,31.70
2019-02-26T12:27:03.990Z,33.83
2019-02-26T12:29:32.029Z,31.87
2019-02-26T12:32:01.204Z,30.90
2019-02-26T12:34:29.829Z,38.50
2019-02-26T12:37:02.081Z,31.37
2019-02-26T12:39:29.211Z,32.13
2019-02-26T12:41:57.472Z,34.10
2019-02-26T12:44:25.529Z,30.23
2019-02-26T12:46:53.743Z,29.63
2019-02-26T12:49:23.336Z,34.23
2019-02-26T12:51:54.020Z,29.00
2019-02-26T12:54:21.136Z,29.33
2019-02-26T12:56:51.548Z,24.03
2019-02-26T12:59:18.992Z,39.47
2019-02-26T13:01:49.288Z,30.30
2019-02-26T13:04:21.431Z,27.17
2019-02-26T13:06:49.259Z,35.83
2019-02-26T13:09:17.887Z,29.37
2019-02-26T13:12:00.656Z,27.97
2019-02-26T13:14:15.750Z,30.40
2019-02-26T13:16:46.214Z,28.47
2019-02-26T13:19:13.480Z,30.50
2019-02-26T13:21:42.985Z,28.83
2019-02-26T13:24:14.346Z,27.90
2019-02-26T13:26:43.478Z,30.00
2019-02-26T13:29:10.524Z,37.70
2019-02-26T13:31:44.844Z,30.30
2019-02-26T13:34:13.978Z,30.93
2019-02-26T13:36:39.681Z,27.13
2019-02-26T13:39:08.487Z,26.73
2019-02-26T13:41:38.887Z,33.70
2019-02-26T13:44:06.221Z,27.47
2019-02-26T13:46:34.367Z,34.67
2019-02-26T13:49:02.409Z,34.33
2019-02-26T13:51:30.475Z,33.30
2019-02-26T13:53:58.543Z,38.30
2019-02-26T13:56:27.081Z,33.33
2019-02-26T13:58:55.133Z,34.37
2019-02-26T14:01:23.187Z,28.73
2019-02-26T14:03:51.294Z,30.50
2019-02-26T14:06:19.370Z,32.03
2019-02-26T14:08:47.438Z,32.43
2019-02-26T14:11:15.477Z,42.20
2019-02-26T14:13:43.559Z,34.17
2019-02-26T14:16:11.614Z,31.33
2019-02-26T14:18:39.671Z,29.77
2019-02-26T14:21:07.681Z,34.20
2019-02-26T14:23:35.903Z,32.07
2019-02-26T14:26:04.038Z,37.63
2019-02-26T14:28:32.034Z,31.53
2019-02-26T14:31:00.095Z,36.07
2019-02-26T14:33:28.162Z,37.60
2019-02-26T14:35:56.180Z,38.73
2019-02-26T14:38:24.541Z,43.50
2019-02-26T14:40:52.551Z,43.27
2019-02-26T14:43:20.623Z,42.07
2019-02-26T14:45:48.691Z,39.03
2019-02-26T14:48:16.814Z,38.80
2019-02-26T14:50:44.928Z,41.23
2019-02-26T14:53:13.017Z,40.43
2019-02-26T14:55:41.044Z,38.60
2019-02-26T14:58:09.129Z,37.03
2019-02-26T15:00:37.378Z,36.53
2019-02-26T15:03:05.504Z,37.40
2019-02-26T15:05:33.647Z,34.97
2019-02-26T15:08:01.736Z,37.00
2019-02-26T15:10:29.808Z,35.80
2019-02-26T15:12:57.873Z,31.57
2019-02-26T15:15:26.001Z,37.30
2019-02-26T15:17:54.123Z,36.33
2019-02-26T15:20:22.437Z,34.77
2019-02-26T15:22:50.690Z,35.87
2019-02-26T15:25:20.009Z,37.47
2019-02-26T15:27:48.050Z,38.40
2019-02-26T15:30:16.707Z,34.80
2019-02-26T15:32:44.818Z,37.57
2019-02-26T15:35:13.130Z,37.13
2019-02-26T15:40:46.969Z,39.37
2019-02-26T15:43:15.053Z,37.90
2019-02-26T15:45:51.554Z,38.73
2019-02-26T15:48:12.842Z,39.27
2019-02-26T15:50:40.938Z,37.83
2019-02-26T15:53:09.022Z,39.47
2019-02-26T15:55:37.514Z,37.60
2019-02-26T15:58:06.878Z,40.40
2019-02-26T16:00:38.451Z,36.13
2019-02-26T16:03:06.597Z,40.27
2019-02-26T16:05:34.686Z,39.30
2019-02-26T16:08:03.024Z,39.70
2019-02-26T16:10:31.130Z,43.03
2019-02-26T16:13:04.341Z,42.67
2019-02-26T16:15:32.678Z,40.70
2019-02-26T16:18:01.101Z,42.73
2019-02-26T16:20:29.548Z,43.70
2019-02-26T16:22:57.597Z,45.47
2019-02-26T16:25:25.564Z,46.13
2019-02-26T16:27:53.775Z,46.03
2019-02-26T16:30:22.566Z,44.03
2019-02-26T16:32:50.936Z,43.80
2019-02-26T16:35:19.051Z,47.57
2019-02-26T16:37:47.098Z,48.17
2019-02-26T16:40:15.279Z,47.30
2019-02-26T16:42:44.613Z,43.50
2019-02-26T16:45:14.293Z,48.83
2019-02-26T16:47:42.293Z,49.17
2019-02-26T16:50:13.251Z,49.00
2019-02-26T16:52:41.118Z,48.20
2019-02-26T16:55:13.337Z,46.50
2019-02-26T16:57:39.526Z,47.77
2019-02-26T17:00:08.525Z,52.03
2019-02-26T17:02:36.568Z,49.80
2019-02-26T17:05:05.731Z,48.57
2019-02-26T17:07:34.121Z,46.43
2019-02-26T17:10:02.155Z,51.20
2019-02-26T17:12:30.543Z,49.10
2019-02-26T17:14:58.618Z,48.77
2019-02-26T17:17:26.664Z,48.17
2019-02-26T17:19:54.775Z,49.17
2019-02-26T17:22:22.839Z,50.47
2019-02-26T17:24:53.547Z,51.23
2019-02-26T17:27:20.625Z,49.27
2019-02-26T17:29:49.738Z,52.00
2019-02-26T17:32:18.341Z,53.67
2019-02-26T17:34:46.498Z,55.40
2019-02-26T17:40:24.291Z,54.47
2019-02-26T17:42:54.208Z,51.87
2019-02-26T17:45:22.135Z,52.40
2019-02-26T17:51:12.196Z,53.13
2019-02-26T17:53:42.700Z,53.20
2019-02-26T17:56:10.861Z,51.40
2019-02-26T17:59:17.607Z,53.13
2019-02-26T18:01:46.216Z,53.33
2019-02-26T18:04:15.046Z,50.70
2019-02-26T18:06:43.589Z,50.33
2019-02-26T18:09:12.115Z,55.77
2019-02-26T18:11:40.615Z,60.67
2019-02-26T18:14:08.738Z,53.00
2019-02-26T18:16:37.260Z,56.27
2019-02-26T18:19:05.373Z,51.80
2019-02-26T18:21:34.079Z,53.03
2019-02-26T18:24:02.701Z,58.07
2019-02-26T18:26:31.124Z,54.97
2019-02-26T18:28:59.752Z,53.20
2019-02-26T18:31:31.022Z,53.17
2019-02-26T18:33:58.705Z,54.50
2019-02-26T18:36:27.404Z,52.17
2019-02-26T18:38:56.436Z,53.60
2019-02-26T18:41:24.690Z,58.83
2019-02-26T18:43:52.977Z,56.60
2019-02-26T18:46:21.218Z,54.83
2019-02-26T18:48:49.676Z,52.53
2019-02-26T18:51:18.397Z,49.50
2019-02-26T18:53:47.058Z,48.10
2019-02-26T18:56:36.781Z,54.23
2019-02-26T18:59:03.430Z,53.73
2019-02-26T19:01:31.549Z,55.93
2019-02-26T19:03:59.698Z,63.33
2019-02-26T19:06:27.805Z,58.83
2019-02-26T19:09:20.435Z,55.27
2019-02-26T19:11:49.855Z,54.40
2019-02-26T19:14:41.885Z,59.47
2019-02-26T19:17:08.584Z,60.53
2019-02-26T19:19:36.756Z,52.77
2019-02-26T19:25:26.700Z,57.77
2019-02-26T19:27:54.868Z,61.30
2019-02-26T19:30:23.002Z,59.50
2019-02-26T19:32:51.144Z,51.23
2019-02-26T19:35:19.225Z,47.30
2019-02-26T19:37:47.839Z,51.87
2019-02-26T19:40:17.235Z,56.90
2019-02-26T19:42:45.740Z,87.10
2019-02-26T19:45:13.944Z,56.90
2019-02-26T19:47:42.215Z,57.07
2019-02-26T19:50:11.855Z,54.73
2019-02-26T19:52:41.307Z,58.20
2019-02-26T19:55:12.929Z,57.57
2019-02-26T19:57:41.391Z,59.73
2019-02-26T20:00:11.392Z,56.60
2019-02-26T20:02:39.645Z,58.93
2019-02-26T20:05:09.480Z,56.30
2019-02-26T20:07:40.206Z,59.70
2019-02-26T20:10:09.079Z,54.63
2019-02-26T20:12:37.287Z,58.43
2019-02-26T20:15:05.686Z,59.47
2019-02-26T20:17:35.434Z,58.50
2019-02-26T20:20:05.142Z,55.53
2019-02-26T20:22:33.665Z,59.43
2019-02-26T20:25:01.890Z,59.47
2019-02-26T20:27:30.079Z,53.53
2019-02-26T20:29:58.190Z,56.73
2019-02-26T20:32:30.717Z,55.33
2019-02-26T20:34:56.117Z,57.77
2019-02-26T20:37:25.009Z,57.77
2019-02-26T20:39:53.148Z,56.80
2019-02-26T20:42:21.252Z,57.63
2019-02-26T20:44:58.572Z,53.50
2019-02-26T20:47:19.325Z,58.07
2019-02-26T20:53:08.754Z,55.73
2019-02-26T20:55:37.153Z,61.77
2019-02-26T20:58:05.408Z,57.47
2019-02-26T21:00:33.738Z,56.47
2019-02-26T21:03:01.866Z,54.63
2019-02-26T21:05:30.048Z,56.57
2019-02-26T21:07:58.951Z,55.33
2019-02-26T21:10:27.175Z,57.70
2019-02-26T21:12:55.404Z,57.70
2019-02-26T21:15:23.672Z,55.37
2019-02-26T21:17:52.355Z,57.57
2019-02-26T21:20:20.560Z,53.00
2019-02-26T21:22:48.698Z,54.30
2019-02-26T21:25:16.995Z,54.20
2019-02-26T21:27:45.381Z,57.07
2019-02-26T21:30:14.779Z,52.40
2019-02-26T21:32:42.879Z,53.37
2019-02-26T21:35:11.109Z,54.13
2019-02-26T21:37:39.218Z,56.70
2019-02-26T21:40:07.651Z,56.57
2019-02-26T21:42:35.789Z,55.60
2019-02-26T21:45:04.030Z,55.30
2019-02-26T21:47:32.617Z,52.57
2019-02-26T21:50:00.706Z,53.10
2019-02-26T21:52:28.896Z,55.53
2019-02-26T21:54:58.186Z,54.93
2019-02-26T21:57:26.722Z,56.30
2019-02-26T21:59:54.867Z,54.70
2019-02-26T22:02:22.985Z,55.17
2019-02-26T22:04:51.366Z,52.67
2019-02-26T22:07:19.854Z,54.33
2019-02-26T22:09:48.213Z,51.03
2019-02-26T22:12:16.535Z,53.07
2019-02-26T22:14:45.394Z,56.40
2019-02-26T22:17:14.402Z,53.43
2019-02-26T22:19:42.800Z,52.20
2019-02-26T22:22:11.159Z,54.37
2019-02-26T22:24:40.684Z,47.87
2019-02-26T22:27:09.551Z,52.17
2019-02-26T22:29:38.230Z,54.93
2019-02-26T22:32:06.610Z,52.27
2019-02-26T22:34:41.465Z,47.70
2019-02-26T22:37:09.535Z,49.30
2019-02-26T22:39:38.202Z,51.70
2019-02-26T22:42:08.046Z,48.93
2019-02-26T22:44:36.510Z,54.43
2019-02-26T22:47:06.923Z,53.13
2019-02-26T22:49:34.508Z,46.70
2019-02-26T22:52:02.916Z,50.57
2019-02-26T22:54:31.051Z,50.20
2019-02-26T22:56:59.313Z,53.83
2019-02-26T22:59:27.611Z,52.90
2019-02-26T23:01:56.832Z,51.33
2019-02-26T23:04:25.326Z,51.47
2019-02-26T23:06:53.942Z,50.03
2019-02-26T23:09:25.939Z,52.70
2019-02-26T23:11:54.138Z,49.47
2019-02-26T23:14:22.538Z,51.90
2019-02-26T23:16:52.173Z,50.63
2019-02-26T23:19:20.523Z,52.43
2019-02-26T23:21:49.968Z,52.57
2019-02-26T23:24:18.443Z,52.27
2019-02-26T23:26:46.515Z,49.77
2019-02-26T23:29:14.570Z,49.00
2019-02-26T23:31:42.646Z,53.13
2019-02-26T23:34:13.678Z,49.60
2019-02-26T23:36:41.764Z,53.13
2019-02-26T23:39:11.299Z,51.80
2019-02-26T23:41:39.367Z,55.03
2019-02-26T23:44:07.728Z,53.87
2019-02-26T23:46:35.790Z,53.77
2019-02-26T23:49:03.825Z,52.37
2019-02-26T23:51:34.193Z,52.50
2019-02-26T23:54:07.356Z,52.00
2019-02-26T23:56:35.912Z,48.77
2019-02-26T23:59:04.160Z,49.40
